Time;durP1;ratioP1;P1;durP2;ratioP2;P2;SDS_P1;SDS_P2;PMS_P1;PMS_P2;Temp;Humidity;BMP_temperature;BMP_pressure;BME280_temperature;BME280_humidity;BME280_pressure;Samples;Min_cycle;Max_cycle;Signal;HPM_P1;HPM_P2
2022/10/29 00:00:49;;;;;;;11.50;4.43;;;15.20;1.00;;;;;;5093810;28;20406;-58
2022/10/29 00:03:15;;;;;;;17.05;5.47;;;15.20;1.00;;;;;;5093482;28;20386;-59
2022/10/29 00:05:40;;;;;;;18.37;5.00;;;15.20;99.90;;;;;;5093840;28;20386;-58
2022/10/29 00:08:06;;;;;;;14.20;4.27;;;15.20;1.00;;;;;;5092907;28;20378;-58
2022/10/29 00:10:32;;;;;;;11.52;4.78;;;15.30;1.00;;;;;;5093976;28;20498;-59
2022/10/29 00:13:01;;;;;;;13.50;5.20;;;15.20;1.00;;;;;;5093959;28;20732;-58
2022/10/29 00:15:28;;;;;;;15.90;4.87;;;15.30;99.90;;;;;;5093374;28;20459;-58
2022/10/29 00:17:53;;;;;;;12.50;4.30;;;15.20;99.90;;;;;;5093801;28;20417;-59
2022/10/29 00:20:20;;;;;;;14.40;5.20;;;15.20;99.90;;;;;;5092732;28;20374;-58
2022/10/29 00:22:46;;;;;;;16.35;5.97;;;15.10;1.00;;;;;;5093498;28;20466;-58
2022/10/29 00:25:12;;;;;;;17.70;4.97;;;15.10;99.90;;;;;;5092335;28;20432;-59
2022/10/29 00:27:37;;;;;;;13.67;4.80;;;15.20;99.90;;;;;;5093683;28;20431;-58
2022/10/29 00:30:03;;;;;;;14.80;4.47;;;15.10;99.90;;;;;;5092999;28;20378;-58
2022/10/29 00:32:29;;;;;;;14.55;4.70;;;15.20;99.90;;;;;;5092875;28;20382;-59
2022/10/29 00:34:54;;;;;;;18.23;5.20;;;15.10;99.90;;;;;;5093170;28;20400;-59
2022/10/29 00:37:20;;;;;;;11.93;5.05;;;15.10;99.90;;;;;;5092898;28;20447;-58
2022/10/29 00:39:46;;;;;;;16.42;4.70;;;15.10;99.90;;;;;;5093264;28;20851;-58
2022/10/29 00:42:14;;;;;;;13.43;4.80;;;15.00;99.90;;;;;;5091808;28;20465;-58
2022/10/29 00:44:40;;;;;;;13.60;5.45;;;15.00;1.00;;;;;;5092494;28;20739;-58
2022/10/29 00:47:27;;;;;;;12.88;4.70;;;15.10;1.00;;;;;;5092959;28;20389;-59
2022/10/29 00:50:03;;;;;;;14.15;5.45;;;15.00;1.00;;;;;;5092869;28;20370;-58
2022/10/29 00:52:31;;;;;;;11.40;5.45;;;15.00;28.50;;;;;;5092823;28;20370;-58
2022/10/29 00:55:00;;;;;;;13.15;5.70;;;15.00;99.90;;;;;;5092734;28;20398;-58
2022/10/29 00:57:32;;;;;;;15.00;5.88;;;14.80;99.90;;;;;;5092237;28;20402;-58
2022/10/29 00:59:58;;;;;;;14.27;5.20;;;14.80;99.90;;;;;;5092450;28;20767;-58
2022/10/29 01:02:24;;;;;;;14.80;6.43;;;14.80;99.90;;;;;;5091404;28;20409;-58
2022/10/29 01:04:52;;;;;;;16.08;6.10;;;14.70;99.90;;;;;;5092402;28;20455;-58
2022/10/29 01:07:19;;;;;;;15.85;6.18;;;14.70;1.00;;;;;;5091834;28;20378;-58
2022/10/29 01:09:44;;;;;;;13.15;5.90;;;14.70;1.00;;;;;;5092571;28;20412;-58
2022/10/29 01:12:35;;;;;;;14.15;5.82;;;14.70;1.00;;;;;;5092214;28;20928;-58
2022/10/29 01:15:19;;;;;;;14.02;6.25;;;14.70;1.00;;;;;;5092046;28;20458;-58
2022/10/29 01:18:07;;;;;;;16.23;5.93;;;14.70;1.00;;;;;;5092129;28;20421;-58
2022/10/29 01:20:47;;;;;;;16.92;6.40;;;14.70;1.00;;;;;;5092343;28;20378;-58
2022/10/29 01:23:25;;;;;;;15.90;6.23;;;14.70;1.00;;;;;;5091459;28;20378;-58
2022/10/29 01:25:54;;;;;;;11.02;6.30;;;14.70;1.00;;;;;;5092466;28;20370;-58
2022/10/29 01:28:41;;;;;;;17.95;6.88;;;14.60;1.00;;;;;;5091699;28;20473;-58
2022/10/29 01:31:25;;;;;;;23.67;6.70;;;14.70;1.00;;;;;;5091386;28;20389;-58
2022/10/29 01:33:58;;;;;;;14.65;6.70;;;14.70;1.00;;;;;;5091803;28;20406;-58
2022/10/29 01:36:48;;;;;;;19.17;7.50;;;14.80;1.00;;;;;;5091207;28;20442;-58
2022/10/29 01:39:18;;;;;;;15.80;6.75;;;14.90;1.00;;;;;;5091027;28;20431;-58
2022/10/29 01:41:51;;;;;;;15.18;6.30;;;14.90;1.00;;;;;;5091939;28;20378;-58
2022/10/29 01:44:36;;;;;;;14.93;6.50;;;15.00;1.00;;;;;;5091355;28;20370;-58
2022/10/29 01:47:04;;;;;;;20.48;6.18;;;15.00;1.00;;;;;;5091729;28;20382;-58
2022/10/29 01:49:43;;;;;;;13.18;6.90;;;15.00;1.00;;;;;;5091251;28;20370;-58
2022/10/29 01:52:12;;;;;;;16.95;6.15;;;15.00;1.00;;;;;;5091220;28;20378;-59
2022/10/29 01:54:42;;;;;;;17.65;6.10;;;15.00;1.00;;;;;;5091592;28;20881;-58
2022/10/29 01:57:29;;;;;;;11.83;5.57;;;14.90;1.00;;;;;;5090190;28;20402;-58
2022/10/29 02:00:00;;;;;;;14.80;6.75;;;14.90;1.00;;;;;;5091194;28;20725;-58
2022/10/29 02:02:53;;;;;;;16.25;6.93;;;14.90;1.00;;;;;;5091351;28;20450;-58
2022/10/29 02:05:37;;;;;;;13.80;6.20;;;14.90;1.00;;;;;;5090302;28;20443;-57
2022/10/29 02:08:28;;;;;;;19.00;6.85;;;14.80;1.00;;;;;;5091671;28;20385;-57
2022/10/29 02:11:19;;;;;;;18.50;6.53;;;14.70;1.00;;;;;;5091160;28;20389;-56
2022/10/29 02:13:54;;;;;;;16.92;6.15;;;14.70;1.00;;;;;;5091200;28;20996;-57
2022/10/29 02:16:22;;;;;;;15.48;6.50;;;14.60;1.00;;;;;;5090531;28;20750;-57
2022/10/29 02:18:49;;;;;;;13.57;5.85;;;14.60;1.00;;;;;;5091318;28;20421;-57
2022/10/29 02:21:19;;;;;;;16.30;6.47;;;14.60;1.00;;;;;;5090416;28;20801;-57
2022/10/29 02:23:45;;;;;;;11.33;5.70;;;14.60;1.00;;;;;;5091401;28;20374;-57
2022/10/29 02:26:11;;;;;;;13.35;6.60;;;14.70;1.00;;;;;;5090280;28;20481;-57
2022/10/29 02:28:37;;;;;;;13.87;6.00;;;14.80;1.00;;;;;;5091023;28;20386;-57
2022/10/29 02:31:03;;;;;;;17.50;7.40;;;14.90;1.00;;;;;;5090851;28;20386;-57
2022/10/29 02:33:29;;;;;;;16.77;6.32;;;14.90;1.00;;;;;;5089788;28;20402;-57
2022/10/29 02:35:54;;;;;;;16.13;5.72;;;14.80;1.00;;;;;;5091227;28;20832;-57
2022/10/29 02:38:20;;;;;;;11.77;5.73;;;14.70;1.00;;;;;;5090190;28;20413;-57
2022/10/29 02:40:45;;;;;;;17.60;6.10;;;14.70;1.00;;;;;;5090875;28;20386;-57
2022/10/29 02:43:11;;;;;;;12.18;5.70;;;14.60;1.00;;;;;;5089581;28;20859;-57
2022/10/29 02:45:37;;;;;;;16.15;6.57;;;14.60;1.00;;;;;;5090432;28;20374;-57
2022/10/29 02:48:02;;;;;;;16.40;6.00;;;14.60;1.00;;;;;;5090608;28;20410;-57
2022/10/29 02:50:28;;;;;;;13.80;6.10;;;14.70;1.00;;;;;;5089489;28;20381;-57
2022/10/29 02:52:54;;;;;;;21.47;6.07;;;14.70;1.00;;;;;;5090378;28;20382;-57
2022/10/29 02:55:19;;;;;;;11.20;5.57;;;14.80;1.00;;;;;;5089664;28;20404;-57
2022/10/29 02:57:45;;;;;;;16.48;5.60;;;14.80;1.00;;;;;;5090503;28;20759;-56
2022/10/29 03:00:11;;;;;;;12.68;5.35;;;14.80;1.00;;;;;;5090033;28;20421;-57
2022/10/29 03:02:37;;;;;;;16.08;5.88;;;14.70;1.00;;;;;;5090552;28;20389;-57
2022/10/29 03:05:03;;;;;;;16.80;5.70;;;14.70;1.00;;;;;;5090367;28;20382;-56
2022/10/29 03:07:33;;;;;;;12.63;6.00;;;14.50;1.00;;;;;;5089747;28;20849;-57
2022/10/29 03:09:58;;;;;;;13.88;5.72;;;14.50;1.00;;;;;;5089967;28;20389;-57
2022/10/29 03:12:24;;;;;;;16.65;5.63;;;14.50;1.00;;;;;;5088854;28;20431;-57
2022/10/29 03:14:49;;;;;;;12.40;5.60;;;14.70;1.00;;;;;;5090271;28;20431;-56
2022/10/29 03:17:15;;;;;;;21.43;6.43;;;14.60;1.00;;;;;;5089459;28;20398;-57
2022/10/29 03:19:40;;;;;;;16.17;5.85;;;14.50;1.00;;;;;;5089940;28;20439;-57
2022/10/29 03:22:06;;;;;;;13.10;5.50;;;14.40;1.00;;;;;;5089980;28;20378;-56
2022/10/29 03:24:32;;;;;;;14.83;6.13;;;14.40;1.00;;;;;;5089352;28;20417;-57
2022/10/29 03:26:57;;;;;;;12.13;5.20;;;14.20;1.00;;;;;;5090524;28;20465;-56
2022/10/29 03:29:23;;;;;;;13.32;6.20;;;14.20;1.00;;;;;;5089376;28;20390;-57
2022/10/29 03:31:48;;;;;;;14.60;5.50;;;14.20;1.00;;;;;;5089770;28;20740;-56
2022/10/29 03:34:14;;;;;;;14.97;5.57;;;14.10;1.00;;;;;;5089108;28;20398;-57
2022/10/29 03:36:39;;;;;;;19.63;6.70;;;14.00;1.00;;;;;;5089825;28;20386;-57
2022/10/29 03:39:05;;;;;;;13.68;5.75;;;14.00;1.00;;;;;;5090162;28;20409;-57
2022/10/29 03:41:31;;;;;;;11.02;5.40;;;14.10;1.00;;;;;;5088848;28;20555;-57
2022/10/29 03:43:56;;;;;;;16.33;5.37;;;14.10;1.00;;;;;;5089452;28;20386;-57
2022/10/29 03:46:22;;;;;;;10.18;5.20;;;14.10;1.00;;;;;;5089288;28;20475;-57
2022/10/29 03:48:50;;;;;;;14.23;6.15;;;14.10;1.00;;;;;;5089571;28;20374;-57
2022/10/29 03:51:16;;;;;;;15.00;6.50;;;14.20;1.00;;;;;;5088729;28;20439;-57
2022/10/29 03:53:41;;;;;;;15.30;5.50;;;14.30;1.00;;;;;;5090122;28;20851;-57
2022/10/29 03:56:09;;;;;;;12.60;5.37;;;14.30;1.00;;;;;;5089293;28;20867;-57
2022/10/29 03:58:35;;;;;;;12.50;5.40;;;14.40;1.00;;;;;;5089907;28;20462;-57
2022/10/29 04:01:05;;;;;;;18.93;7.10;;;14.30;1.00;;;;;;5089636;28;20386;-57
2022/10/29 04:03:32;;;;;;;16.85;6.82;;;14.40;1.00;;;;;;5089096;28;20390;-57
2022/10/29 04:06:00;;;;;;;14.40;5.90;;;14.50;1.00;;;;;;5090017;28;20816;-57
2022/10/29 04:08:26;;;;;;;13.98;5.70;;;14.60;1.00;;;;;;5088803;28;20424;-57
2022/10/29 04:10:52;;;;;;;13.40;5.67;;;14.50;1.00;;;;;;5090070;28;20406;-57
2022/10/29 04:13:18;;;;;;;15.85;6.47;;;14.50;1.00;;;;;;5089339;28;20926;-57
2022/10/29 04:15:44;;;;;;;16.48;6.60;;;14.50;1.00;;;;;;5089739;28;20669;-56
2022/10/29 04:18:10;;;;;;;13.60;6.03;;;14.50;1.00;;;;;;5089006;28;20467;-57
2022/10/29 04:20:38;;;;;;;14.23;5.70;;;14.30;1.00;;;;;;5092946;28;20714;-57
2022/10/29 04:23:03;;;;;;;15.67;6.03;;;14.20;1.00;;;;;;5092932;28;20383;-57
2022/10/29 04:25:29;;;;;;;15.20;5.70;;;14.10;1.00;;;;;;5092618;28;20452;-57
2022/10/29 04:27:55;;;;;;;17.10;5.63;;;14.30;1.00;;;;;;5093168;28;20378;-57
2022/10/29 04:30:24;;;;;;;12.60;6.10;;;14.40;1.00;;;;;;5092507;28;20810;-57
2022/10/29 04:32:50;;;;;;;15.70;5.95;;;14.40;1.00;;;;;;5093110;28;20441;-57
2022/10/29 04:35:15;;;;;;;15.38;5.20;;;14.40;1.00;;;;;;5092121;28;20884;-57
2022/10/29 04:37:41;;;;;;;16.33;6.17;;;14.40;1.00;;;;;;5093134;28;20530;-56
2022/10/29 04:40:07;;;;;;;18.50;6.50;;;14.40;1.00;;;;;;5093355;28;20374;-56
2022/10/29 04:42:37;;;;;;;14.90;6.20;;;14.30;1.00;;;;;;5091721;28;20378;-57
2022/10/29 04:45:04;;;;;;;10.70;6.03;;;14.20;1.00;;;;;;5093013;28;20378;-57
2022/10/29 04:47:30;;;;;;;16.23;6.00;;;14.20;1.00;;;;;;5092292;28;20469;-57
2022/10/29 04:49:56;;;;;;;11.47;5.73;;;14.10;1.00;;;;;;5092610;28;20414;-57
2022/10/29 04:52:21;;;;;;;14.25;5.65;;;14.10;1.00;;;;;;5092083;28;20508;-57
2022/10/29 04:54:47;;;;;;;13.63;5.65;;;14.10;1.00;;;;;;5092979;28;20374;-57
2022/10/29 04:57:12;;;;;;;15.70;5.43;;;14.10;1.00;;;;;;5091727;28;20406;-57
2022/10/29 04:59:38;;;;;;;17.20;6.00;;;14.10;1.00;;;;;;5092911;28;20385;-56
2022/10/29 05:02:03;;;;;;;14.07;5.80;;;13.90;1.00;;;;;;5092189;28;20402;-56
2022/10/29 05:04:29;;;;;;;17.67;6.40;;;13.90;1.00;;;;;;5092321;28;20990;-56
2022/10/29 05:06:54;;;;;;;10.60;5.20;;;13.80;1.00;;;;;;5092599;28;20413;-56
2022/10/29 05:09:20;;;;;;;16.73;6.20;;;13.80;1.00;;;;;;5091020;28;20390;-56
2022/10/29 05:11:46;;;;;;;17.02;5.72;;;13.70;1.00;;;;;;5092470;28;20882;-57
2022/10/29 05:14:11;;;;;;;17.20;5.80;;;13.70;1.00;;;;;;5091973;28;20379;-57
2022/10/29 05:16:37;;;;;;;14.93;5.60;;;13.70;1.00;;;;;;5091748;28;20393;-56
2022/10/29 05:19:03;;;;;;;13.68;5.82;;;13.80;1.00;;;;;;5092570;28;20745;-56
2022/10/29 05:21:29;;;;;;;11.90;5.43;;;13.70;1.00;;;;;;5090430;28;20705;-56
2022/10/29 05:23:54;;;;;;;16.40;5.50;;;13.70;1.00;;;;;;5091820;28;20457;-56
2022/10/29 05:26:20;;;;;;;17.77;6.00;;;13.60;1.00;;;;;;5088155;28;20378;-56
2022/10/29 05:28:50;;;;;;;13.95;5.50;;;13.60;1.00;;;;;;5088250;28;20874;-56
2022/10/29 05:31:16;;;;;;;15.68;5.40;;;13.60;1.00;;;;;;5090648;28;20399;-57
2022/10/29 05:33:41;;;;;;;15.18;6.25;;;13.60;1.00;;;;;;5081741;28;20430;-56
2022/10/29 05:36:07;;;;;;;15.73;6.50;;;13.60;1.00;;;;;;5071837;28;20364;-56
2022/10/29 05:38:32;;;;;;;14.00;6.57;;;13.70;1.00;;;;;;5071016;28;20399;-56
2022/10/29 05:40:58;;;;;;;12.00;5.30;;;13.70;1.00;;;;;;5071499;28;20845;-56
2022/10/29 05:43:24;;;;;;;10.00;4.70;;;13.70;1.00;;;;;;5070951;28;20521;-57
2022/10/29 05:45:50;;;;;;;13.98;5.65;;;13.70;1.00;;;;;;5071189;28;20471;-56
2022/10/29 05:48:15;;;;;;;17.23;5.80;;;13.70;1.00;;;;;;5070415;28;20368;-57
2022/10/29 05:50:41;;;;;;;15.00;5.80;;;13.60;1.00;;;;;;5071773;28;20867;-57
2022/10/29 05:53:10;;;;;;;12.70;5.30;;;13.60;1.00;;;;;;5071885;28;20384;-56
2022/10/29 05:55:36;;;;;;;13.07;5.40;;;13.80;1.00;;;;;;5070927;28;20376;-56
2022/10/29 05:58:04;;;;;;;16.98;5.95;;;13.60;1.00;;;;;;5071460;28;20402;-56
2022/10/29 06:00:34;;;;;;;13.25;5.85;;;13.60;1.00;;;;;;5070742;28;20395;-56
2022/10/29 06:03:00;;;;;;;17.52;5.88;;;13.50;1.00;;;;;;5070915;28;20726;-56
2022/10/29 06:05:26;;;;;;;16.67;6.03;;;13.50;1.00;;;;;;5082568;28;20455;-56
2022/10/29 06:07:55;;;;;;;10.88;5.40;;;13.50;1.00;;;;;;5091346;28;20722;-56
2022/10/29 06:10:21;;;;;;;15.50;6.00;;;13.50;1.00;;;;;;5090298;28;20390;-57
2022/10/29 06:12:47;;;;;;;13.43;5.60;;;13.50;1.00;;;;;;5091183;28;20389;-64
2022/10/29 06:15:12;;;;;;;11.70;5.27;;;13.50;1.00;;;;;;5090925;28;20382;-62
2022/10/29 06:17:42;;;;;;;15.17;5.87;;;13.60;1.00;;;;;;5090635;28;20440;-64
2022/10/29 06:20:09;;;;;;;10.75;5.70;;;13.70;1.00;;;;;;5090683;28;20675;-64
2022/10/29 06:22:35;;;;;;;14.45;6.70;;;13.80;1.00;;;;;;5089970;28;21219;-61
2022/10/29 06:25:01;;;;;;;14.00;6.00;;;13.80;1.00;;;;;;5091164;28;20374;-64
2022/10/29 06:27:26;;;;;;;15.85;5.70;;;13.80;1.00;;;;;;5090311;28;20851;-64
2022/10/29 06:29:52;;;;;;;14.98;5.50;;;13.90;1.00;;;;;;5091107;28;20381;-55
2022/10/29 06:32:17;;;;;;;14.10;5.60;;;13.90;1.00;;;;;;5089316;28;20378;-56
2022/10/29 06:34:43;;;;;;;12.93;5.40;;;13.90;1.00;;;;;;5090630;28;20863;-56
2022/10/29 06:37:09;;;;;;;14.13;5.32;;;13.90;1.00;;;;;;5090241;28;20416;-54
2022/10/29 06:39:36;;;;;;;12.77;5.65;;;13.90;1.00;;;;;;5088848;28;20410;-54
2022/10/29 06:42:02;;;;;;;13.00;5.33;;;14.10;1.00;;;;;;5090441;28;20839;-54
2022/10/29 06:44:27;;;;;;;16.60;6.00;;;14.10;1.00;;;;;;5090057;28;20378;-54
2022/10/29 06:46:53;;;;;;;12.97;5.87;;;14.20;1.00;;;;;;5090519;28;20483;-54
2022/10/29 06:49:20;;;;;;;15.73;6.03;;;14.30;1.00;;;;;;5090009;28;20375;-53
2022/10/29 06:51:46;;;;;;;16.80;5.72;;;14.50;1.00;;;;;;5090305;28;20456;-56
2022/10/29 06:54:11;;;;;;;13.48;5.80;;;14.70;99.90;;;;;;5090368;28;20487;-58
2022/10/29 06:56:37;;;;;;;13.50;5.10;;;14.70;99.90;;;;;;5090527;28;20405;-55
2022/10/29 06:59:03;;;;;;;11.03;4.93;;;14.70;99.90;;;;;;5090425;28;20402;-55
2022/10/29 07:01:31;;;;;;;13.25;5.35;;;14.80;99.90;;;;;;5089313;28;20886;-56
2022/10/29 07:04:00;;;;;;;14.88;5.70;;;15.00;99.90;;;;;;5089875;28;20375;-55
2022/10/29 07:06:30;;;;;;;15.60;5.68;;;15.20;20.80;;;;;;5071183;28;20790;-56
2022/10/29 07:08:55;;;;;;;12.40;5.50;;;15.40;1.00;;;;;;5090306;28;20410;-56
2022/10/29 07:11:21;;;;;;;13.73;5.35;;;15.80;99.90;;;;;;5089195;28;20811;-56
2022/10/29 07:13:46;;;;;;;12.10;5.10;;;16.30;99.90;;;;;;5090275;28;20374;-56
2022/10/29 07:16:12;;;;;;;15.50;6.27;;;16.90;1.00;;;;;;5088997;28;20402;-57
2022/10/29 07:18:38;;;;;;;13.50;5.47;;;17.80;99.90;;;;;;5089904;28;20454;-55
2022/10/29 07:21:04;;;;;;;17.52;5.53;;;18.70;1.00;;;;;;5089666;28;20711;-56
2022/10/29 07:23:30;;;;;;;12.60;5.40;;;19.50;99.90;;;;;;5088907;28;20853;-57
2022/10/29 07:25:55;;;;;;;13.15;5.53;;;20.10;1.00;;;;;;5089936;28;20385;-57
2022/10/29 07:28:22;;;;;;;12.55;5.53;;;20.50;1.00;;;;;;5089481;28;20374;-57
2022/10/29 07:30:49;;;;;;;14.68;5.88;;;20.80;1.00;;;;;;5089658;28;20374;-57
2022/10/29 07:33:15;;;;;;;12.10;5.23;;;21.10;1.00;;;;;;5088993;28;20416;-57
2022/10/29 07:35:41;;;;;;;14.20;6.07;;;21.20;1.00;;;;;;5090308;28;20374;-57
2022/10/29 07:38:08;;;;;;;13.75;5.80;;;21.30;1.00;;;;;;5089492;28;20428;-57
2022/10/29 07:40:33;;;;;;;15.82;5.65;;;21.70;1.00;;;;;;5089205;28;21022;-57
2022/10/29 07:42:59;;;;;;;15.40;5.45;;;22.10;1.00;;;;;;5089630;28;20422;-57
2022/10/29 07:45:25;;;;;;;16.02;5.30;;;22.60;1.00;;;;;;5089569;28;20378;-57
2022/10/29 07:48:01;;;;;;;11.70;5.20;;;22.80;1.00;;;;;;5090303;28;20378;-55
2022/10/29 07:50:29;;;;;;;15.95;5.80;;;23.40;1.00;;;;;;5089399;28;20494;-55
2022/10/29 07:52:54;;;;;;;14.27;6.63;;;23.80;1.00;;;;;;5089689;28;20439;-55
2022/10/29 07:55:20;;;;;;;11.57;5.28;;;24.30;1.00;;;;;;5091940;28;20370;-56
2022/10/29 07:57:46;;;;;;;15.60;5.90;;;24.70;1.00;;;;;;5075453;28;20437;-55
2022/10/29 08:00:13;;;;;;;16.47;5.70;;;24.40;99.90;;;;;;5093474;28;20380;-56
2022/10/29 08:02:41;;;;;;;12.48;5.57;;;23.60;99.90;;;;;;5093936;28;20414;-58
2022/10/29 08:05:07;;;;;;;11.85;5.38;;;23.30;99.90;;;;;;5093668;28;20727;-57
2022/10/29 08:07:32;;;;;;;15.00;5.70;;;23.10;99.90;;;;;;5093514;28;20522;-57
2022/10/29 08:09:58;;;;;;;15.85;6.35;;;22.80;99.90;;;;;;5094009;28;20377;-57
2022/10/29 08:12:23;;;;;;;18.38;7.30;;;22.00;99.90;;;;;;5092451;28;20855;-57
2022/10/29 08:14:49;;;;;;;15.73;6.65;;;22.10;99.90;;;;;;5093552;28;20831;-57
2022/10/29 08:17:15;;;;;;;19.38;9.05;;;22.30;99.90;;;;;;5092658;28;20448;-58
2022/10/29 08:19:40;;;;;;;17.98;9.15;;;23.10;99.90;;;;;;5093374;28;20374;-57
2022/10/29 08:22:06;;;;;;;16.80;7.78;;;22.30;99.90;;;;;;5093449;28;20404;-57
2022/10/29 08:24:31;;;;;;;15.15;7.00;;;22.10;99.90;;;;;;5092543;28;20370;-57
2022/10/29 08:26:57;;;;;;;14.65;6.57;;;21.90;99.90;;;;;;5093018;28;20406;-58
2022/10/29 08:29:23;;;;;;;14.35;6.70;;;21.50;99.90;;;;;;5091953;28;20410;-55
2022/10/29 08:31:48;;;;;;;17.07;6.40;;;21.30;99.90;;;;;;5093606;28;20481;-55
2022/10/29 08:34:14;;;;;;;14.67;6.20;;;21.00;99.90;;;;;;5092086;28;20432;-55
2022/10/29 08:36:40;;;;;;;14.30;6.30;;;20.70;99.90;;;;;;5092964;28;20461;-55
2022/10/29 08:39:06;;;;;;;16.77;6.73;;;20.60;1.00;;;;;;5092297;28;20499;-55
2022/10/29 08:41:40;;;;;;;17.88;7.50;;;20.40;1.00;;;;;;5092178;28;21008;-55
2022/10/29 08:44:09;;;;;;;18.87;8.13;;;20.60;1.00;;;;;;5093305;28;20379;-57
2022/10/29 08:46:46;;;;;;;18.05;7.40;;;20.90;1.00;;;;;;5092101;28;20379;-57
2022/10/29 08:49:24;;;;;;;15.65;6.45;;;21.00;1.00;;;;;;5093111;28;20416;-57
2022/10/29 08:51:57;;;;;;;13.70;6.30;;;21.40;1.00;;;;;;5093081;28;20454;-57
2022/10/29 08:54:25;;;;;;;17.48;6.97;;;21.60;1.00;;;;;;5092141;28;20378;-57
2022/10/29 08:56:54;;;;;;;14.75;5.25;;;21.90;1.00;;;;;;5092804;28;20378;-57
2022/10/29 08:59:21;;;;;;;15.07;7.10;;;22.20;1.00;;;;;;5074095;28;20395;-57
2022/10/29 09:01:47;;;;;;;13.80;6.00;;;22.30;1.00;;;;;;5092165;28;20780;-57
2022/10/29 09:04:35;;;;;;;14.05;5.60;;;22.90;1.00;;;;;;5074026;28;20378;-55
2022/10/29 09:07:22;;;;;;;15.40;5.97;;;24.10;1.00;;;;;;5092727;28;20835;-55
2022/10/29 09:10:02;;;;;;;16.67;5.70;;;25.90;1.00;;;;;;5092772;28;20907;-57
2022/10/29 09:12:35;;;;;;;13.20;6.30;;;27.30;99.90;;;;;;5091926;28;20465;-58
2022/10/29 09:15:29;;;;;;;14.63;7.38;;;27.80;99.90;;;;;;5073899;28;20394;-57
2022/10/29 09:18:33;;;;;;;17.23;9.50;;;28.10;99.90;;;;;;5092388;28;20485;-58
2022/10/29 09:21:10;;;;;;;16.07;9.20;;;28.60;99.90;;;;;;5092234;28;20386;-58
2022/10/29 09:24:07;;;;;;;19.40;8.70;;;28.40;99.90;;;;;;5091494;28;20450;-58
2022/10/29 09:26:47;;;;;;;13.77;6.03;;;28.90;99.90;;;;;;5090978;28;20381;-56
2022/10/29 09:29:34;;;;;;;17.97;6.90;;;30.00;99.90;;;;;;5092103;28;20370;-56
2022/10/29 09:32:10;;;;;;;16.70;14.10;;;30.50;99.90;;;;;;5091943;28;20378;-56
2022/10/29 09:34:41;;;;;;;16.27;11.60;;;30.40;99.90;;;;;;5090696;28;20410;-56
2022/10/29 09:37:16;;;;;;;13.30;6.13;;;30.70;99.90;;;;;;5091949;28;20396;-56
2022/10/29 09:39:46;;;;;;;13.77;6.13;;;30.90;99.90;;;;;;5091413;28;20774;-56
2022/10/29 09:42:23;;;;;;;14.60;6.30;;;31.30;99.90;;;;;;5091568;28;20381;-56
2022/10/29 09:44:55;;;;;;;17.20;6.40;;;31.20;99.90;;;;;;5092064;28;20443;-56
2022/10/29 09:47:38;;;;;;;14.45;5.00;;;30.90;99.90;;;;;;5091160;28;20430;-56
2022/10/29 09:50:09;;;;;;;13.82;5.57;;;31.40;99.90;;;;;;5107579;28;20386;-56
2022/10/29 09:52:38;;;;;;;13.10;5.38;;;31.20;99.90;;;;;;5090871;28;20521;-57
2022/10/29 09:55:09;;;;;;;15.63;5.78;;;31.20;99.90;;;;;;5091300;28;20374;-57
2022/10/29 09:57:37;;;;;;;15.90;6.60;;;31.30;99.90;;;;;;5090300;28;20429;-56
2022/10/29 10:00:15;;;;;;;15.10;6.40;;;31.30;99.90;;;;;;5091620;28;20397;-56
2022/10/29 10:02:59;;;;;;;16.45;8.18;;;31.40;99.90;;;;;;5091316;28;20419;-56
2022/10/29 10:05:31;;;;;;;15.50;7.60;;;31.30;99.90;;;;;;5090128;28;20867;-56
2022/10/29 10:08:03;;;;;;;17.33;6.55;;;30.90;99.90;;;;;;5091454;28;20388;-57
2022/10/29 10:10:29;;;;;;;13.32;5.07;;;30.70;99.90;;;;;;5090304;28;20378;-57
2022/10/29 10:13:05;;;;;;;21.07;9.33;;;30.50;99.90;;;;;;5091061;28;20378;-57
2022/10/29 10:15:30;;;;;;;13.70;8.17;;;29.90;99.90;;;;;;5069896;28;20375;-57
2022/10/29 10:17:59;;;;;;;15.80;7.97;;;29.70;99.90;;;;;;5069818;28;20459;-56
2022/10/29 10:20:32;;;;;;;11.27;7.00;;;29.50;99.90;;;;;;5085725;28;20726;-57
2022/10/29 10:22:58;;;;;;;13.55;7.90;;;29.80;99.90;;;;;;5070590;28;20425;-57
2022/10/29 10:25:35;;;;;;;15.90;7.20;;;30.00;99.90;;;;;;5069911;28;20372;-57
2022/10/29 10:28:16;;;;;;;14.25;7.70;;;30.20;99.90;;;;;;5070728;28;20395;-57
2022/10/29 10:30:42;;;;;;;13.40;7.80;;;30.40;99.90;;;;;;5070202;28;20463;-57
2022/10/29 10:33:21;;;;;;;13.87;8.40;;;31.00;99.90;;;;;;5070676;28;20425;-57
2022/10/29 10:35:47;;;;;;;15.50;9.65;;;31.50;99.90;;;;;;5070802;28;20449;-57
2022/10/29 10:38:14;;;;;;;17.75;9.45;;;32.00;99.90;;;;;;5070326;28;20408;-56
2022/10/29 10:40:41;;;;;;;17.25;9.68;;;32.30;99.90;;;;;;5069771;28;20386;-57
2022/10/29 10:43:18;;;;;;;14.40;9.02;;;32.30;99.90;;;;;;5069825;28;20372;-56
2022/10/29 10:45:55;;;;;;;15.70;9.00;;;32.40;99.90;;;;;;5085850;28;20441;-56
2022/10/29 10:48:24;;;;;;;15.52;8.40;;;31.90;99.90;;;;;;5051335;28;20406;-56
2022/10/29 10:50:50;;;;;;;16.95;8.95;;;31.70;99.90;;;;;;5070565;28;20380;-56
2022/10/29 10:53:19;;;;;;;14.75;8.30;;;31.90;99.90;;;;;;5070189;28;20371;-56
2022/10/29 10:55:51;;;;;;;15.63;7.63;;;32.10;99.90;;;;;;5070116;28;20388;-56
2022/10/29 10:58:44;;;;;;;14.85;8.77;;;31.70;99.90;;;;;;5069080;28;20910;-56
2022/10/29 11:01:13;;;;;;;14.02;6.95;;;31.50;99.90;;;;;;5061318;28;20455;-56
2022/10/29 11:03:46;;;;;;;18.35;4.95;;;31.40;99.90;;;;;;5069402;28;20391;-56
2022/10/29 11:06:13;;;;;;;10.30;4.72;;;31.20;99.90;;;;;;5069886;28;20478;-56
2022/10/29 11:08:42;;;;;;;12.90;4.50;;;30.60;99.90;;;;;;5069064;28;20439;-56
2022/10/29 11:11:14;;;;;;;10.02;4.78;;;30.20;99.90;;;;;;5085085;28;20395;-58
2022/10/29 11:13:42;;;;;;;12.95;4.97;;;29.80;99.90;;;;;;5075576;28;20413;-58
2022/10/29 11:16:30;;;;;;;16.37;5.43;;;29.50;99.90;;;;;;5090153;28;20370;-58
2022/10/29 11:19:05;;;;;;;9.00;4.30;;;28.90;99.90;;;;;;5089616;28;20489;-58
2022/10/29 11:21:48;;;;;;;16.53;7.60;;;28.50;99.90;;;;;;5071393;28;20971;-58
2022/10/29 11:24:26;;;;;;;15.40;7.72;;;28.20;99.90;;;;;;5089564;28;20907;-58
2022/10/29 11:27:13;;;;;;;12.30;6.95;;;27.80;99.90;;;;;;5089627;28;20370;-58
2022/10/29 11:30:08;;;;;;;15.38;6.95;;;27.80;99.90;;;;;;5088897;28;20390;-55
2022/10/29 11:33:15;;;;;;;13.32;6.90;;;27.60;99.90;;;;;;5089428;28;20410;-56
2022/10/29 11:36:13;;;;;;;15.38;7.25;;;27.70;99.90;;;;;;5089742;28;20382;-55
2022/10/29 11:38:48;;;;;;;19.20;7.55;;;27.80;99.90;;;;;;5088808;28;20405;-56
2022/10/29 11:41:33;;;;;;;18.42;6.93;;;28.00;99.90;;;;;;5090433;28;20378;-58
2022/10/29 11:43:59;;;;;;;16.33;7.30;;;28.00;99.90;;;;;;5089647;28;20557;-58
2022/10/29 11:46:35;;;;;;;18.43;7.23;;;27.90;99.90;;;;;;5089066;28;20394;-58
2022/10/29 11:49:01;;;;;;;13.80;5.97;;;27.70;99.90;;;;;;5089578;28;20912;-58
2022/10/29 11:51:55;;;;;;;13.00;6.27;;;27.50;99.90;;;;;;5089429;28;20386;-56
2022/10/29 11:54:39;;;;;;;15.07;6.13;;;27.40;99.90;;;;;;5045630;28;20386;-55
2022/10/29 11:57:18;;;;;;;10.48;5.80;;;27.30;99.90;;;;;;5089157;28;20443;-56
2022/10/29 12:00:17;;;;;;;16.70;7.35;;;27.30;99.90;;;;;;5089288;28;20410;-56
2022/10/29 12:03:19;;;;;;;18.52;5.88;;;27.60;99.90;;;;;;5089293;28;20786;-57
2022/10/29 12:05:59;;;;;;;11.63;5.20;;;27.80;99.90;;;;;;5090064;28;20461;-56
2022/10/29 12:08:31;;;;;;;10.90;5.83;;;27.80;99.90;;;;;;5089272;28;20370;-57
2022/10/29 12:11:19;;;;;;;12.80;6.40;;;27.90;99.90;;;;;;5089215;28;20863;-57
2022/10/29 12:13:55;;;;;;;13.15;6.35;;;27.80;99.90;;;;;;5088629;28;20389;-57
2022/10/29 12:16:29;;;;;;;12.90;6.10;;;27.70;99.90;;;;;;5088749;28;20382;-57
2022/10/29 12:19:05;;;;;;;17.08;7.03;;;27.70;99.90;;;;;;5089341;28;20432;-57
2022/10/29 12:21:33;;;;;;;13.70;6.53;;;27.90;99.90;;;;;;5088778;28;20370;-57
2022/10/29 12:24:11;;;;;;;10.52;6.35;;;28.20;99.90;;;;;;5089323;28;20389;-57
2022/10/29 12:26:43;;;;;;;12.38;5.57;;;28.50;99.90;;;;;;5089326;28;20474;-56
2022/10/29 12:29:23;;;;;;;16.15;6.30;;;28.30;99.90;;;;;;5088802;28;20382;-57
2022/10/29 12:31:58;;;;;;;12.50;6.38;;;28.00;99.90;;;;;;5089520;28;20481;-57
2022/10/29 12:34:53;;;;;;;11.30;5.87;;;27.70;99.90;;;;;;5088110;28;20410;-57
2022/10/29 12:37:37;;;;;;;13.88;5.80;;;27.60;99.90;;;;;;5089244;28;20769;-57
2022/10/29 12:40:20;;;;;;;11.82;6.10;;;27.70;99.90;;;;;;5089524;28;20447;-57
2022/10/29 12:42:48;;;;;;;14.65;5.70;;;27.70;99.90;;;;;;5092374;28;20811;-57
2022/10/29 12:45:50;;;;;;;13.43;6.00;;;27.70;99.90;;;;;;5074359;28;20878;-57
2022/10/29 12:48:37;;;;;;;11.65;5.15;;;27.70;99.90;;;;;;5092387;28;20800;-57
2022/10/29 12:51:10;;;;;;;9.55;4.57;;;27.80;99.90;;;;;;5092406;28;20386;-57
2022/10/29 12:54:04;;;;;;;10.95;5.30;;;27.70;99.90;;;;;;5091986;28;21066;-57
2022/10/29 12:56:30;;;;;;;13.00;5.45;;;27.90;99.90;;;;;;5092069;28;20779;-56
2022/10/29 12:58:58;;;;;;;14.55;5.53;;;27.70;99.90;;;;;;5092086;28;20417;-57
2022/10/29 13:01:29;;;;;;;11.87;4.93;;;27.60;99.90;;;;;;5091919;28;20902;-57